الصفحة الرئيسية
METAR-TAF:

METAR-TAF

مطار :

Weno, مايكرونيزيا

دائرة عرض: 07-28N, خط طول: 151-51E, ارتفاع: 3 متر

مراقبة الطقس الحالي

تاريخ ووقت الإصدار 2ساعات و 7 دقيقة قبل الساعة 13:50UTC
ريح 5 عقدةمن اتجاهات متغيرة
درجة الحرارة 28°درجة مئوية
الرطوبة 89%
ضغط 1011 hPa
الرؤية: 24.1 كم
غيوم قليلة على ارتفاع 1400 قدم
غيوم مفككة على ارتفاع 28000 قدم

METAR: PTKK 221350Z VRB05KT 15SM FEW014 BKN280 28/26 A2984 RMK SLP106 T02810262

زمن: 01:57 (15:57 UTC)

توقعات

تاريخ ووقت الإصدار 4ساعات و 37 دقيقة قبل الساعة 11:20UTC
التوقعات صالحة من22 الساعة 12 UTC إلى 23 الساعة 12 UTC
ريح 9 عقدة من الشمال الشرقي
الرؤية: 10 كم
غيوم متفرقة على ارتفاع 1400 قدم
غيوم متفرقة على ارتفاع 4000 قدم
زخات في الجوار

TAF: PTKK 221120Z 2212/2312 05009KT P6SM VCSH SCT014 SCT040

أرصاد الطقس والتوقعات من أكثر من 4000 مطار (تقارير الطقس للمطار METAR والتنبؤ بالطقس بالمطارTAF).

المحطات المتاحة هي النقط الصفراء والحمراء على الخريطة.

حرك المؤشر فوق النقطة لمعرفة اسم المحطة.

ثم انقر لمعرفة أرصاد وتوقعات الطقس.

لتغيير الخارطة: اضغط على الأزرار الخضراء مع رمز الصليب الأسود للتكبير. على الزر الأخضر مع شرطة للتصغير، أو على الأسهم الخضراء للخرائط المجاورة.


METAR-TAF: